Time;durP1;ratioP1;P1;durP2;ratioP2;P2;SDS_P1;SDS_P2;PMS_P1;PMS_P2;Temp;Humidity;BMP_temperature;BMP_pressure;BME280_temperature;BME280_humidity;BME280_pressure;Samples;Min_cycle;Max_cycle;Signal;HPM_P1;HPM_P2
2023/01/11 00:00:18;;;;;;;5.65;2.95;;;22.50;61.20;;;;;;5069083;28;20082;-78
2023/01/11 00:02:45;;;;;;;2.38;1.73;;;22.50;61.00;;;;;;5066356;28;20036;-77
2023/01/11 00:05:11;;;;;;;2.65;2.28;;;22.70;60.50;;;;;;5051900;28;20462;-76
2023/01/11 00:07:39;;;;;;;13.10;4.72;;;22.60;61.00;;;;;;5050126;28;20124;-78
2023/01/11 00:10:07;;;;;;;9.48;4.05;;;22.50;60.10;;;;;;5050206;28;20048;-79
2023/01/11 00:12:34;;;;;;;3.10;1.98;;;22.60;60.10;;;;;;5051626;28;20036;-77
2023/01/11 00:15:00;;;;;;;7.68;2.38;;;22.50;61.20;;;;;;5065421;28;20382;-77
2023/01/11 00:17:28;;;;;;;8.13;3.42;;;22.50;60.40;;;;;;5050062;28;20033;-77
2023/01/11 00:19:54;;;;;;;9.88;4.15;;;22.40;60.70;;;;;;5034036;28;20056;-78
2023/01/11 00:22:20;;;;;;;9.25;3.00;;;22.50;61.50;;;;;;5071097;28;20052;-78
2023/01/11 00:24:46;;;;;;;10.02;3.63;;;22.50;61.30;;;;;;5073544;28;20107;-79
2023/01/11 00:27:12;;;;;;;4.25;2.17;;;22.50;61.40;;;;;;5055462;28;20135;-78
2023/01/11 00:29:38;;;;;;;3.45;2.42;;;22.40;61.40;;;;;;5068000;28;20071;-78
2023/01/11 00:32:04;;;;;;;8.82;3.42;;;22.50;60.90;;;;;;5057480;28;20091;-78
2023/01/11 00:34:30;;;;;;;7.70;2.78;;;22.50;61.00;;;;;;5035045;28;20087;-77
2023/01/11 00:36:56;;;;;;;11.15;3.38;;;22.50;60.80;;;;;;5053433;28;20037;-77
2023/01/11 00:39:21;;;;;;;6.50;2.42;;;22.60;61.00;;;;;;5053191;28;20562;-77
2023/01/11 00:50:02;;;;;;;10.65;3.17;;;22.60;60.20;;;;;;5053389;28;20445;-78
2023/01/11 00:52:28;;;;;;;10.68;4.00;;;22.60;60.20;;;;;;5035389;28;20458;-78
2023/01/11 00:54:54;;;;;;;3.28;1.55;;;22.40;60.50;;;;;;5052970;28;20035;-79
2023/01/11 00:57:20;;;;;;;8.50;3.25;;;22.40;61.00;;;;;;5053167;28;20103;-77
2023/01/11 00:59:46;;;;;;;1.10;0.88;;;22.50;61.00;;;;;;5053213;28;20025;-79
2023/01/11 01:02:12;;;;;;;6.78;3.67;;;22.50;60.90;;;;;;5064327;28;20045;-78
2023/01/11 01:04:38;;;;;;;9.10;3.80;;;22.50;60.70;;;;;;5068287;28;20103;-77
2023/01/11 01:07:05;;;;;;;9.93;3.67;;;22.50;60.60;;;;;;5061603;28;20037;-77
2023/01/11 01:09:32;;;;;;;7.72;3.90;;;22.40;61.10;;;;;;5052764;28;20116;-78
2023/01/11 01:12:00;;;;;;;13.27;3.95;;;22.40;61.20;;;;;;5052530;28;20036;-78
2023/01/11 01:14:29;;;;;;;8.82;3.03;;;22.30;61.40;;;;;;5067156;28;20107;-79
2023/01/11 01:17:00;;;;;;;17.88;4.35;;;22.20;61.30;;;;;;5067263;28;20020;-78
2023/01/11 01:19:27;;;;;;;6.32;2.85;;;22.40;61.90;;;;;;5055258;28;20079;-77
2023/01/11 01:21:55;;;;;;;7.30;3.53;;;22.40;61.40;;;;;;5072680;28;20036;-79
2023/01/11 01:24:21;;;;;;;9.85;3.20;;;22.30;61.30;;;;;;5072527;28;20119;-78
2023/01/11 01:26:48;;;;;;;6.72;3.13;;;22.30;61.60;;;;;;5071013;28;20031;-78
2023/01/11 01:29:14;;;;;;;7.07;3.67;;;22.50;61.30;;;;;;5058152;28;20033;-79
2023/01/11 01:31:43;;;;;;;11.18;5.38;;;22.30;60.40;;;;;;5062469;28;20029;-77
2023/01/11 01:34:10;;;;;;;11.80;3.67;;;22.30;59.80;;;;;;5052507;28;20043;-76
2023/01/11 01:36:36;;;;;;;11.20;4.10;;;22.20;61.70;;;;;;5070056;28;20497;-78
2023/01/11 01:39:04;;;;;;;7.93;4.13;;;22.10;61.90;;;;;;5070159;28;20035;-79
2023/01/11 01:41:30;;;;;;;8.80;3.45;;;22.00;62.10;;;;;;5072114;28;20055;-79
2023/01/11 01:43:58;;;;;;;12.38;3.90;;;22.00;62.10;;;;;;5042155;28;20061;-79
2023/01/11 01:46:29;;;;;;;7.32;3.67;;;21.90;63.30;;;;;;5052384;28;20041;-77
2023/01/11 01:49:10;;;;;;;13.48;4.40;;;21.80;63.10;;;;;;5047316;28;20433;-77
2023/01/11 01:51:42;;;;;;;11.50;4.05;;;21.80;62.20;;;;;;5072013;28;20063;-77
2023/01/11 01:54:14;;;;;;;10.37;4.00;;;21.80;62.30;;;;;;5079716;28;20036;-78
2023/01/11 01:56:52;;;;;;;6.90;2.78;;;21.80;62.40;;;;;;5092171;28;20753;-77
2023/01/11 01:59:20;;;;;;;9.43;4.07;;;21.80;62.80;;;;;;5074263;28;20111;-78
2023/01/11 02:01:47;;;;;;;6.63;3.80;;;21.80;62.50;;;;;;5068872;28;20033;-77
2023/01/11 02:04:36;;;;;;;6.95;3.83;;;21.80;61.90;;;;;;5051382;28;20037;-77
2023/01/11 02:07:12;;;;;;;4.55;2.28;;;21.80;61.30;;;;;;4955870;28;20073;-78
2023/01/11 02:09:49;;;;;;;9.82;4.50;;;21.90;62.10;;;;;;4975763;28;20077;-79
2023/01/11 02:12:15;;;;;;;8.27;3.95;;;22.10;62.20;;;;;;5009121;28;20100;-79
2023/01/11 02:14:43;;;;;;;10.40;3.05;;;21.90;61.70;;;;;;4960857;28;20038;-77
2023/01/11 02:17:11;;;;;;;9.80;5.10;;;22.00;61.50;;;;;;4991831;28;20124;-79
2023/01/11 02:19:45;;;;;;;6.93;1.95;;;21.90;61.50;;;;;;4990794;28;20044;-79
2023/01/11 02:22:39;;;;;;;8.88;4.10;;;21.90;61.80;;;;;;4989319;28;20045;-78
2023/01/11 02:25:08;;;;;;;11.30;3.85;;;21.90;62.30;;;;;;4974551;28;20049;-79
2023/01/11 02:27:45;;;;;;;11.30;4.15;;;22.00;62.00;;;;;;4985141;28;20100;-77
2023/01/11 02:30:34;;;;;;;4.30;3.13;;;21.90;60.80;;;;;;5008124;28;20172;-77
2023/01/11 02:33:05;;;;;;;12.88;4.35;;;21.90;62.30;;;;;;5005488;28;20630;-79
2023/01/11 02:35:50;;;;;;;12.60;4.13;;;21.80;61.60;;;;;;5005712;28;20046;-79
2023/01/11 02:39:09;;;;;;;8.77;4.35;;;21.80;61.90;;;;;;4988258;28;20135;-77
2023/01/11 02:45:00;;;;;;;8.15;4.15;;;21.60;62.20;;;;;;4989656;28;20054;-78
2023/01/11 02:47:38;;;;;;;7.18;4.20;;;21.60;62.10;;;;;;5024925;28;20132;-79
2023/01/11 02:50:16;;;;;;;9.85;4.30;;;21.50;62.40;;;;;;5008855;28;20502;-76
2023/01/11 02:52:57;;;;;;;6.90;4.40;;;21.50;62.50;;;;;;5012076;28;20095;-78
2023/01/11 02:55:30;;;;;;;13.60;3.90;;;21.60;62.20;;;;;;5028623;28;20053;-78
2023/01/11 02:58:00;;;;;;;8.77;4.47;;;21.50;62.40;;;;;;5026477;28;20053;-79
2023/01/11 03:00:26;;;;;;;7.68;3.90;;;21.60;62.20;;;;;;5026125;28;20029;-78
2023/01/11 03:03:12;;;;;;;4.03;2.83;;;21.60;61.80;;;;;;5011942;28;20442;-79
2023/01/11 03:05:51;;;;;;;9.05;4.32;;;21.60;61.60;;;;;;5014329;28;20037;-78
2023/01/11 03:08:20;;;;;;;7.63;2.95;;;21.80;61.30;;;;;;5008166;28;20140;-79
2023/01/11 03:10:57;;;;;;;5.05;3.05;;;21.80;61.20;;;;;;5008175;28;20056;-74
2023/01/11 03:13:49;;;;;;;8.57;4.55;;;21.80;61.20;;;;;;5007531;28;20045;-79
2023/01/11 03:16:24;;;;;;;5.60;3.78;;;21.90;61.00;;;;;;5007771;28;20404;-78
2023/01/11 03:19:01;;;;;;;9.45;4.05;;;21.90;61.00;;;;;;5041661;28;20075;-79
2023/01/11 03:21:46;;;;;;;7.00;3.38;;;22.00;61.10;;;;;;5048179;28;20494;-78
2023/01/11 03:24:37;;;;;;;14.27;4.60;;;21.80;61.00;;;;;;5047954;28;20080;-77
2023/01/11 03:27:16;;;;;;;7.65;3.85;;;21.70;61.30;;;;;;5048214;28;20131;-78
2023/01/11 03:29:59;;;;;;;7.95;3.53;;;21.60;61.30;;;;;;5049802;28;20442;-75
2023/01/11 03:32:49;;;;;;;9.48;4.35;;;21.60;61.90;;;;;;5065537;28;20039;-78
2023/01/11 03:35:24;;;;;;;6.72;3.90;;;21.50;61.70;;;;;;5048017;28;20033;-78
2023/01/11 03:38:05;;;;;;;8.90;3.95;;;21.50;61.70;;;;;;5048216;28;20532;-78
2023/01/11 03:40:41;;;;;;;9.48;3.22;;;21.50;61.90;;;;;;5070441;28;20039;-78
2023/01/11 03:43:11;;;;;;;7.10;3.83;;;21.60;61.50;;;;;;5069894;28;20032;-77
2023/01/11 03:45:52;;;;;;;8.43;3.78;;;21.40;61.50;;;;;;5071288;28;20042;-78
2023/01/11 03:48:30;;;;;;;9.18;4.60;;;21.50;61.80;;;;;;5084895;28;20029;-77
2023/01/11 03:50:58;;;;;;;9.07;4.18;;;21.40;61.70;;;;;;5070396;28;20155;-78
2023/01/11 03:53:26;;;;;;;5.95;2.75;;;21.40;62.30;;;;;;5070215;28;20113;-78
2023/01/11 03:55:57;;;;;;;7.97;4.00;;;21.30;61.90;;;;;;5081367;28;20035;-78
2023/01/11 03:58:27;;;;;;;6.47;3.53;;;21.30;61.50;;;;;;5092206;28;20028;-79
2023/01/11 04:00:55;;;;;;;10.35;3.72;;;21.30;61.70;;;;;;5083565;28;20436;-79
2023/01/11 04:03:21;;;;;;;7.75;3.40;;;21.30;61.90;;;;;;5075147;28;20028;-78
2023/01/11 04:05:52;;;;;;;9.80;4.13;;;21.40;61.60;;;;;;5093172;28;20064;-78
2023/01/11 04:08:18;;;;;;;10.55;3.38;;;21.40;61.10;;;;;;5089808;28;20090;-78
2023/01/11 04:10:44;;;;;;;8.68;4.40;;;21.40;61.40;;;;;;5061858;28;20676;-79
2023/01/11 04:13:10;;;;;;;8.77;3.88;;;21.40;61.30;;;;;;5058161;28;20028;-78
2023/01/11 04:15:36;;;;;;;9.27;3.85;;;21.50;61.00;;;;;;5050757;28;20056;-78
2023/01/11 04:18:04;;;;;;;7.18;3.90;;;21.50;61.10;;;;;;5054297;28;20052;-78
2023/01/11 04:20:35;;;;;;;12.05;4.53;;;21.40;60.90;;;;;;5058502;28;20035;-78
2023/01/11 04:23:02;;;;;;;7.40;4.05;;;21.50;61.20;;;;;;5073827;28;20044;-78
2023/01/11 04:25:28;;;;;;;10.35;4.15;;;21.40;61.20;;;;;;5055731;28;20119;-77
2023/01/11 04:27:54;;;;;;;5.70;3.08;;;21.40;61.00;;;;;;5071561;28;20120;-78
2023/01/11 04:30:20;;;;;;;10.40;4.35;;;21.40;60.90;;;;;;5071285;28;20087;-77
2023/01/11 04:32:46;;;;;;;9.90;3.40;;;21.40;60.80;;;;;;5054527;28;20082;-78
2023/01/11 04:35:12;;;;;;;10.40;4.32;;;21.40;61.10;;;;;;5048666;28;20481;-78
2023/01/11 04:37:38;;;;;;;9.30;3.80;;;21.30;60.80;;;;;;5064170;28;20109;-78
2023/01/11 04:40:05;;;;;;;10.57;4.40;;;21.30;60.90;;;;;;5053233;28;20075;-74
2023/01/11 04:42:31;;;;;;;12.73;4.07;;;21.40;60.60;;;;;;5051994;28;20497;-77
2023/01/11 04:44:57;;;;;;;6.95;3.95;;;21.60;60.50;;;;;;5052586;28;20029;-78
2023/01/11 04:47:24;;;;;;;7.13;3.83;;;21.60;60.20;;;;;;5067812;28;20029;-78
2023/01/11 04:49:50;;;;;;;9.98;4.47;;;21.60;59.70;;;;;;5061137;28;20449;-78
2023/01/11 04:52:18;;;;;;;8.55;4.68;;;21.60;59.90;;;;;;5034624;28;20082;-79
2023/01/11 04:54:45;;;;;;;8.30;4.20;;;21.50;59.80;;;;;;5052833;28;20060;-79
2023/01/11 04:57:16;;;;;;;11.68;4.80;;;21.60;59.70;;;;;;5052612;28;20032;-77
2023/01/11 04:59:42;;;;;;;14.23;5.03;;;21.40;59.90;;;;;;5064123;28;20059;-78
2023/01/11 05:02:08;;;;;;;7.22;4.05;;;21.30;60.40;;;;;;5071727;28;20393;-78
2023/01/11 05:04:34;;;;;;;8.15;3.80;;;21.20;61.60;;;;;;5063099;28;20041;-78
2023/01/11 05:07:00;;;;;;;7.32;3.45;;;21.00;61.70;;;;;;5052986;28;20548;-77
2023/01/11 05:09:26;;;;;;;11.77;4.47;;;21.00;62.70;;;;;;5064058;28;20044;-78
2023/01/11 05:11:52;;;;;;;8.80;4.38;;;21.10;61.80;;;;;;5072817;28;20025;-77
2023/01/11 05:14:18;;;;;;;14.65;4.75;;;21.10;61.00;;;;;;5057349;28;20052;-78
2023/01/11 05:16:44;;;;;;;7.70;4.13;;;21.30;60.70;;;;;;5052603;28;20025;-77
2023/01/11 05:19:11;;;;;;;7.30;3.55;;;21.20;60.30;;;;;;5054385;28;20028;-78
2023/01/11 05:21:39;;;;;;;19.10;3.85;;;21.30;60.30;;;;;;5052570;28;20033;-79
2023/01/11 05:24:12;;;;;;;8.73;3.72;;;21.20;60.20;;;;;;5035010;28;20111;-78
2023/01/11 05:26:41;;;;;;;12.25;4.32;;;21.20;60.80;;;;;;5060012;28;20025;-78
2023/01/11 05:29:09;;;;;;;8.20;4.05;;;21.20;60.30;;;;;;5053731;28;20540;-78
2023/01/11 05:31:38;;;;;;;6.63;4.20;;;21.30;60.80;;;;;;5052636;28;20454;-78
2023/01/11 05:34:05;;;;;;;9.32;3.97;;;21.30;60.40;;;;;;5036171;28;20170;-77
2023/01/11 05:36:32;;;;;;;8.93;3.63;;;21.30;60.20;;;;;;5072304;28;20089;-78
2023/01/11 05:38:58;;;;;;;10.20;4.60;;;21.30;60.10;;;;;;5052247;28;20029;-76
2023/01/11 05:41:26;;;;;;;6.82;4.40;;;21.30;60.40;;;;;;5051827;28;20052;-79
2023/01/11 05:46:40;;;;;;;20.25;7.13;;;21.20;50.90;;;;;;5068230;28;20024;-78
2023/01/11 05:49:07;;;;;;;25.27;11.30;;;21.30;47.80;;;;;;5055071;28;20623;-77
2023/01/11 05:51:33;;;;;;;37.75;12.00;;;21.30;48.30;;;;;;5066675;28;20040;-78
2023/01/11 05:54:00;;;;;;;36.45;13.45;;;21.30;47.30;;;;;;5056081;28;20025;-79
2023/01/11 05:56:27;;;;;;;44.67;13.98;;;21.40;47.40;;;;;;5054468;28;20059;-76
2023/01/11 05:58:53;;;;;;;55.13;15.80;;;21.50;47.40;;;;;;5060439;28;20032;-74
2023/01/11 06:01:21;;;;;;;53.80;19.40;;;21.50;45.60;;;;;;5057232;28;20028;-74
2023/01/11 06:03:48;;;;;;;48.78;20.52;;;21.50;45.30;;;;;;5051346;28;20056;-75
2023/01/11 06:06:15;;;;;;;44.05;19.10;;;21.40;45.20;;;;;;5051880;28;20044;-75
2023/01/11 06:08:41;;;;;;;39.72;17.27;;;21.40;44.90;;;;;;5055867;28;20064;-80
2023/01/11 06:11:07;;;;;;;34.42;16.40;;;21.40;44.90;;;;;;5054196;28;20068;-77
2023/01/11 06:13:33;;;;;;;33.45;16.80;;;21.40;44.50;;;;;;5051496;28;20039;-79
2023/01/11 06:16:06;;;;;;;20.67;10.70;;;21.50;43.80;;;;;;5051411;28;20037;-78
2023/01/11 06:18:35;;;;;;;11.95;6.82;;;21.50;44.10;;;;;;5050920;28;20033;-75
2023/01/11 06:21:01;;;;;;;14.32;6.90;;;21.80;59.30;;;;;;5033003;28;20734;-76
2023/01/11 06:23:30;;;;;;;7.72;4.90;;;22.00;58.90;;;;;;5069711;28;20496;-77
2023/01/11 06:25:59;;;;;;;10.90;5.20;;;22.10;57.90;;;;;;5067281;28;20124;-75
2023/01/11 06:28:25;;;;;;;1.58;1.48;;;22.20;56.80;;;;;;5056318;28;20063;-76
2023/01/11 06:30:55;;;;;;;3.15;1.10;;;22.30;55.00;;;;;;5068131;28;20108;-75
2023/01/11 06:33:23;;;;;;;2.13;1.13;;;22.40;52.80;;;;;;5071019;28;20035;-78
2023/01/11 06:35:50;;;;;;;10.48;5.03;;;22.50;50.90;;;;;;5062283;28;20116;-75
2023/01/11 06:38:16;;;;;;;12.32;6.32;;;22.60;49.30;;;;;;5051037;28;20064;-72
2023/01/11 06:40:43;;;;;;;14.93;6.88;;;22.40;42.70;;;;;;5050537;28;20767;-73
2023/01/11 06:43:09;;;;;;;10.27;6.75;;;22.40;41.00;;;;;;5052186;28;20040;-77
2023/01/11 06:45:38;;;;;;;11.02;6.20;;;22.50;41.10;;;;;;5072379;28;20032;-80
2023/01/11 06:48:05;;;;;;;12.20;5.88;;;22.50;40.20;;;;;;5035362;28;20501;-76
2023/01/11 06:50:31;;;;;;;9.75;5.75;;;22.40;40.60;;;;;;5071108;28;20450;-73
2023/01/11 06:53:00;;;;;;;14.23;6.95;;;22.40;40.20;;;;;;5070993;28;20047;-75
2023/01/11 06:55:28;;;;;;;14.32;7.03;;;22.50;39.90;;;;;;5070707;28;20032;-76
2023/01/11 06:57:54;;;;;;;13.30;6.15;;;22.60;41.80;;;;;;5064603;28;20033;-77
2023/01/11 07:00:21;;;;;;;16.15;6.55;;;22.70;43.50;;;;;;5050744;28;20116;-74
2023/01/11 07:02:47;;;;;;;10.70;5.07;;;22.80;43.30;;;;;;5059586;28;20040;-76
2023/01/11 07:05:15;;;;;;;14.98;5.97;;;22.90;41.50;;;;;;5056087;28;20481;-76
2023/01/11 07:07:42;;;;;;;9.10;5.75;;;22.80;38.60;;;;;;5050783;28;20052;-74
2023/01/11 07:10:13;;;;;;;11.02;5.75;;;22.90;39.80;;;;;;5051583;28;20064;-75
2023/01/11 07:12:39;;;;;;;9.80;5.03;;;23.00;39.70;;;;;;5050370;28;20029;-76
2023/01/11 07:15:07;;;;;;;8.13;5.20;;;22.90;38.90;;;;;;5050437;28;20072;-76
2023/01/11 07:17:33;;;;;;;7.38;5.63;;;22.90;38.10;;;;;;5065411;28;20036;-75
2023/01/11 07:19:59;;;;;;;9.90;4.85;;;22.90;38.80;;;;;;5035353;28;20049;-76
2023/01/11 07:22:26;;;;;;;8.88;4.68;;;23.10;41.00;;;;;;5042477;28;20064;-79
2023/01/11 07:24:52;;;;;;;7.57;4.20;;;23.10;51.60;;;;;;5031328;28;20441;-77
2023/01/11 07:27:19;;;;;;;7.43;5.03;;;23.00;51.90;;;;;;4994779;28;20050;-76
2023/01/11 07:29:46;;;;;;;11.00;5.63;;;22.90;52.50;;;;;;5031413;28;20398;-77
2023/01/11 07:32:12;;;;;;;10.82;5.38;;;22.70;53.20;;;;;;5032083;28;20486;-76
2023/01/11 07:34:38;;;;;;;12.02;5.57;;;22.60;54.00;;;;;;5041882;28;20037;-76
2023/01/11 07:37:04;;;;;;;11.18;4.65;;;22.50;54.40;;;;;;5051857;28;20517;-75
2023/01/11 07:39:31;;;;;;;7.60;5.10;;;22.60;54.50;;;;;;5051441;28;20475;-79
2023/01/11 07:44:41;;;;;;;10.35;5.40;;;22.30;55.50;;;;;;5043104;28;20025;-77
2023/01/11 07:47:07;;;;;;;8.63;5.35;;;22.20;55.90;;;;;;5046279;28;20478;-77
2023/01/11 07:49:33;;;;;;;9.95;5.25;;;22.20;56.50;;;;;;5051299;28;20106;-76
2023/01/11 07:51:59;;;;;;;10.23;5.68;;;22.00;56.80;;;;;;5082102;28;20397;-82
2023/01/11 07:54:25;;;;;;;10.43;4.97;;;22.00;56.60;;;;;;5058242;28;20051;-76
2023/01/11 07:56:51;;;;;;;9.45;4.50;;;21.90;57.50;;;;;;5076625;28;20051;-75
2023/01/11 07:59:17;;;;;;;10.77;5.72;;;21.90;57.90;;;;;;5065072;28;20044;-78
2023/01/11 08:01:43;;;;;;;10.02;5.05;;;21.80;58.00;;;;;;5064066;28;20064;-76
2023/01/11 08:04:11;;;;;;;10.85;4.63;;;21.80;57.30;;;;;;5074136;28;20039;-78
2023/01/11 08:06:38;;;;;;;9.15;5.80;;;21.70;58.30;;;;;;5073442;28;20041;-76
2023/01/11 08:09:05;;;;;;;10.88;5.43;;;21.90;58.50;;;;;;5061756;28;20426;-80
2023/01/11 08:17:00;;;;;;;11.88;5.93;;;22.10;58.00;;;;;;5064441;28;20029;-77
2023/01/11 08:19:26;;;;;;;10.60;5.25;;;22.10;58.00;;;;;;5044580;28;20025;-74
2023/01/11 08:21:53;;;;;;;12.70;5.90;;;22.10;58.20;;;;;;5062178;28;20082;-75
2023/01/11 08:24:20;;;;;;;15.32;5.72;;;22.10;58.70;;;;;;5062082;28;20423;-74
2023/01/11 08:26:46;;;;;;;10.45;5.80;;;22.10;59.10;;;;;;5046662;28;20031;-73
2023/01/11 08:29:12;;;;;;;8.55;4.25;;;22.10;59.50;;;;;;5062835;28;20385;-79
2023/01/11 08:31:38;;;;;;;15.75;7.32;;;22.00;60.10;;;;;;5073254;28;20044;-75
2023/01/11 08:34:04;;;;;;;12.35;5.78;;;22.20;57.70;;;;;;5073307;28;20668;-74
2023/01/11 08:36:31;;;;;;;12.50;6.32;;;22.30;56.10;;;;;;5073141;28;20033;-74
2023/01/11 08:38:57;;;;;;;9.20;5.38;;;22.30;55.10;;;;;;5073054;28;20040;-74
2023/01/11 08:41:24;;;;;;;9.23;5.43;;;22.30;54.80;;;;;;5072090;28;20127;-74
2023/01/11 08:43:50;;;;;;;12.18;4.68;;;22.20;54.90;;;;;;5073100;28;20036;-74
2023/01/11 08:46:17;;;;;;;13.02;5.53;;;22.00;55.50;;;;;;5073055;28;20082;-74
2023/01/11 08:48:45;;;;;;;12.05;5.72;;;22.20;55.20;;;;;;5072934;28;20033;-74
2023/01/11 08:51:12;;;;;;;12.02;5.63;;;22.20;56.00;;;;;;5073102;28;20024;-72
2023/01/11 08:53:38;;;;;;;12.73;5.32;;;22.20;56.50;;;;;;5072600;28;20445;-73
2023/01/11 08:56:05;;;;;;;9.93;5.35;;;22.20;56.60;;;;;;5072607;28;20040;-74
2023/01/11 08:58:31;;;;;;;15.05;5.47;;;22.20;56.70;;;;;;5072718;28;20037;-73
2023/01/11 09:01:01;;;;;;;10.85;5.50;;;22.20;57.00;;;;;;5072885;28;20044;-73
2023/01/11 09:03:30;;;;;;;10.70;4.53;;;22.10;57.80;;;;;;5072358;28;20032;-73
2023/01/11 09:05:56;;;;;;;15.48;6.20;;;22.10;57.80;;;;;;5072756;28;20461;-73
2023/01/11 09:08:23;;;;;;;16.25;6.00;;;22.10;57.90;;;;;;5072534;28;20048;-73
2023/01/11 09:10:49;;;;;;;10.55;5.45;;;22.10;57.90;;;;;;5074197;28;20048;-74
2023/01/11 09:13:15;;;;;;;10.55;5.32;;;22.00;58.10;;;;;;5071376;28;20111;-73
2023/01/11 09:15:41;;;;;;;10.80;5.32;;;21.90;58.30;;;;;;5071502;28;20036;-73
2023/01/11 09:18:07;;;;;;;9.13;4.88;;;21.80;58.40;;;;;;5071956;28;20036;-73
2023/01/11 09:20:33;;;;;;;12.70;5.30;;;21.90;58.70;;;;;;5072495;28;20031;-73
2023/01/11 09:22:59;;;;;;;15.13;5.68;;;21.80;58.40;;;;;;5072123;28;20074;-73
2023/01/11 09:25:25;;;;;;;12.20;5.95;;;21.80;58.30;;;;;;5065454;28;20108;-73
2023/01/11 09:27:51;;;;;;;14.40;5.30;;;21.80;58.90;;;;;;5034500;28;20163;-73
2023/01/11 09:30:20;;;;;;;11.48;5.63;;;21.80;59.00;;;;;;5052063;28;20025;-73
2023/01/11 09:32:47;;;;;;;13.10;5.40;;;21.80;58.60;;;;;;5052043;28;20108;-73
2023/01/11 09:35:15;;;;;;;12.00;5.28;;;21.70;58.70;;;;;;5052147;28;20036;-73
2023/01/11 09:37:48;;;;;;;10.65;5.13;;;21.60;59.10;;;;;;5033902;28;20037;-73
2023/01/11 09:40:21;;;;;;;13.10;6.00;;;21.70;59.20;;;;;;5051999;28;20509;-73
2023/01/11 09:42:53;;;;;;;14.20;5.97;;;21.60;59.60;;;;;;5052121;28;20033;-74
2023/01/11 09:45:27;;;;;;;14.00;7.72;;;21.60;60.20;;;;;;5051765;28;20044;-73
2023/01/11 09:48:02;;;;;;;18.60;6.55;;;21.70;60.30;;;;;;5052230;28;20130;-73
2023/01/11 09:50:32;;;;;;;18.65;7.20;;;21.60;59.70;;;;;;5034181;28;20098;-74
2023/01/11 09:53:09;;;;;;;15.95;7.13;;;21.70;59.90;;;;;;5051920;28;20037;-74
2023/01/11 09:55:42;;;;;;;16.85;7.25;;;21.80;59.60;;;;;;5051549;28;20212;-74
2023/01/11 09:58:21;;;;;;;;;;;21.90;59.40;;;;;;5052265;28;20116;-75
2023/01/11 10:01:18;;;;;;;11.57;5.40;;;21.90;60.00;;;;;;5069267;28;19912;-73
2023/01/11 10:04:20;;;;;;;12.23;5.68;;;21.90;60.10;;;;;;5070968;28;20033;-73
2023/01/11 10:07:32;;;;;;;11.45;6.25;;;22.00;59.30;;;;;;5023364;28;20757;-73
2023/01/11 10:10:26;;;;;;;8.57;5.65;;;21.90;59.40;;;;;;5050211;28;20044;-75
2023/01/11 10:13:12;;;;;;;15.63;6.40;;;21.80;59.60;;;;;;5079760;28;20074;-74
2023/01/11 10:15:50;;;;;;;8.98;4.15;;;21.70;51.00;;;;;;5085764;28;20461;-73
2023/01/11 10:18:35;;;;;;;18.58;5.90;;;21.90;48.70;;;;;;5088807;28;20046;-74
2023/01/11 10:21:14;;;;;;;11.00;5.20;;;22.20;45.70;;;;;;5089755;28;20411;-72
2023/01/11 10:24:02;;;;;;;24.85;8.02;;;22.30;46.40;;;;;;5073392;28;20033;-73
2023/01/11 10:26:35;;;;;;;11.82;5.30;;;22.70;53.10;;;;;;5074693;28;20086;-72
2023/01/11 10:35:06;;;;;;;13.23;5.25;;;22.80;37.90;;;;;;5091484;28;20102;-73
2023/01/11 10:37:53;;;;;;;8.90;5.10;;;22.80;37.90;;;;;;5040461;28;20378;-73
2023/01/11 10:41:14;;;;;;;5.50;4.30;;;22.60;38.20;;;;;;5028757;28;20120;-74
2023/01/11 10:43:29;;;;;;;8.43;4.22;;;22.70;38.30;;;;;;5026196;28;20407;-74
2023/01/11 10:45:59;;;;;;;13.02;4.15;;;22.70;38.70;;;;;;5029346;28;20072;-74
2023/01/11 10:48:32;;;;;;;6.47;4.53;;;22.70;38.70;;;;;;5028449;28;20065;-75
2023/01/11 10:51:10;;;;;;;6.22;4.03;;;22.60;38.80;;;;;;5028418;28;20083;-73
2023/01/11 10:53:47;;;;;;;8.48;4.65;;;22.60;38.10;;;;;;5030213;28;20033;-74
2023/01/11 10:56:45;;;;;;;10.30;5.38;;;22.60;37.90;;;;;;5048425;28;20044;-73
2023/01/11 10:59:42;;;;;;;8.30;4.75;;;22.50;38.00;;;;;;5048091;28;20457;-74
2023/01/11 11:02:27;;;;;;;6.95;5.03;;;22.50;38.00;;;;;;5006731;28;20167;-74
2023/01/11 11:05:26;;;;;;;12.05;4.53;;;22.60;38.40;;;;;;5006412;28;20106;-74
2023/01/11 11:08:06;;;;;;;7.43;4.57;;;22.40;37.30;;;;;;4980673;28;20060;-73
2023/01/11 11:10:57;;;;;;;11.43;5.45;;;22.40;39.90;;;;;;5028132;28;20220;-72
2023/01/11 11:13:29;;;;;;;9.10;5.28;;;22.50;39.70;;;;;;5027911;28;20045;-72
2023/01/11 11:16:08;;;;;;;14.43;6.47;;;22.50;39.60;;;;;;5026839;28;20518;-73
2023/01/11 11:18:34;;;;;;;8.35;4.93;;;22.50;39.60;;;;;;5010631;28;20184;-72
2023/01/11 11:21:05;;;;;;;9.25;5.25;;;22.50;39.00;;;;;;5028085;28;20045;-72
2023/01/11 11:23:33;;;;;;;12.50;4.95;;;22.40;38.70;;;;;;5027034;28;20048;-73
2023/01/11 11:26:03;;;;;;;10.75;5.03;;;22.40;39.90;;;;;;5028035;28;20131;-72
2023/01/11 11:28:32;;;;;;;19.45;5.88;;;22.40;39.90;;;;;;5027823;28;20034;-73
2023/01/11 11:31:04;;;;;;;11.85;4.95;;;22.40;38.90;;;;;;5026524;28;20394;-74
2023/01/11 11:33:40;;;;;;;10.60;5.22;;;22.40;39.30;;;;;;5027695;28;20479;-73
2023/01/11 11:36:08;;;;;;;14.15;5.70;;;22.50;39.20;;;;;;5011195;28;20422;-73
2023/01/11 11:38:37;;;;;;;8.95;4.88;;;22.50;38.90;;;;;;5019824;28;20046;-73
2023/01/11 11:41:17;;;;;;;7.97;5.15;;;22.50;40.00;;;;;;4992003;28;20037;-74
2023/01/11 11:43:45;;;;;;;6.43;4.10;;;22.40;38.90;;;;;;5033279;28;20664;-74
2023/01/11 11:46:14;;;;;;;11.07;4.80;;;22.50;38.60;;;;;;5071480;28;20075;-74
2023/01/11 11:48:42;;;;;;;7.78;4.88;;;22.60;51.50;;;;;;5070481;28;20064;-73
2023/01/11 11:51:22;;;;;;;9.38;4.63;;;22.80;52.60;;;;;;5070525;28;20437;-74
2023/01/11 11:53:55;;;;;;;10.70;4.93;;;23.00;52.90;;;;;;5082766;28;20365;-74
2023/01/11 11:56:34;;;;;;;9.95;4.95;;;23.00;53.00;;;;;;5091804;28;20024;-73
2023/01/11 11:59:08;;;;;;;14.07;6.18;;;22.90;53.40;;;;;;5085407;28;20043;-74
2023/01/11 12:01:39;;;;;;;9.35;4.93;;;22.80;54.10;;;;;;5076967;28;20050;-72
2023/01/11 12:04:17;;;;;;;13.52;6.20;;;22.80;54.60;;;;;;5085116;28;20536;-73
2023/01/11 12:06:50;;;;;;;12.25;5.47;;;22.80;54.70;;;;;;5085085;28;20036;-74
2023/01/11 12:09:27;;;;;;;;;;;22.80;54.70;;;;;;5069598;28;20536;-73
2023/01/11 12:11:53;;;;;;;12.02;5.97;;;22.80;55.50;;;;;;5049709;28;20354;-74
2023/01/11 12:14:37;;;;;;;16.05;6.85;;;22.70;56.20;;;;;;5050472;28;20035;-73
2023/01/11 12:17:24;;;;;;;13.40;7.13;;;22.50;56.60;;;;;;5059643;28;20544;-73
2023/01/11 12:19:50;;;;;;;6.85;4.10;;;22.40;57.00;;;;;;5037389;28;20028;-74
2023/01/11 12:22:19;;;;;;;10.38;5.75;;;22.20;57.20;;;;;;5066158;28;20036;-74
2023/01/11 12:24:47;;;;;;;11.38;7.10;;;22.20;57.00;;;;;;5034720;28;20037;-75
2023/01/11 12:27:13;;;;;;;12.85;5.88;;;22.40;56.80;;;;;;5053143;28;20040;-73
2023/01/11 12:29:51;;;;;;;12.80;7.20;;;22.40;56.30;;;;;;5052536;28;20033;-73
2023/01/11 12:32:45;;;;;;;13.52;7.28;;;22.60;56.40;;;;;;5018020;28;20051;-72
2023/01/11 12:35:48;;;;;;;11.48;5.55;;;22.70;56.10;;;;;;4990763;28;20030;-71
2023/01/11 12:38:25;;;;;;;10.68;5.88;;;22.60;56.20;;;;;;4979673;28;20113;-71
2023/01/11 12:41:42;;;;;;;18.00;7.30;;;22.50;56.10;;;;;;4977667;28;20041;-72
2023/01/11 12:44:22;;;;;;;9.13;5.60;;;22.50;56.30;;;;;;4986949;28;20121;-71
2023/01/11 12:46:50;;;;;;;9.57;6.20;;;22.50;56.50;;;;;;4986137;28;20054;-72
2023/01/11 12:49:32;;;;;;;16.75;6.03;;;22.50;56.90;;;;;;4971426;28;20110;-71
2023/01/11 12:52:15;;;;;;;9.25;5.90;;;22.50;56.70;;;;;;4972263;28;20047;-72
2023/01/11 12:55:02;;;;;;;11.07;6.38;;;22.40;56.80;;;;;;4981952;28;20038;-72
2023/01/11 12:58:06;;;;;;;18.70;8.55;;;22.50;56.90;;;;;;4981009;28;20034;-72
2023/01/11 13:00:51;;;;;;;;;;;22.70;56.40;;;;;;4986764;28;20647;-72
2023/01/11 13:03:55;;;;;;;14.70;8.63;;;22.70;56.20;;;;;;4974845;28;19909;-72
2023/01/11 13:06:39;;;;;;;13.82;6.60;;;22.80;55.70;;;;;;4988636;28;20038;-71
2023/01/11 13:09:23;;;;;;;12.45;6.70;;;22.90;55.60;;;;;;4971639;28;20504;-72
2023/01/11 13:12:06;;;;;;;12.60;6.82;;;22.90;55.50;;;;;;5006120;28;20056;-72
2023/01/11 13:14:41;;;;;;;14.55;6.53;;;22.80;55.40;;;;;;5021872;28;20041;-72
2023/01/11 13:17:20;;;;;;;11.63;7.10;;;22.70;55.60;;;;;;5052288;28;20112;-72
2023/01/11 13:19:54;;;;;;;16.27;7.85;;;22.60;56.10;;;;;;5052306;28;20367;-72
2023/01/11 13:22:27;;;;;;;15.25;8.48;;;22.60;56.10;;;;;;5003664;28;20455;-72
2023/01/11 13:24:54;;;;;;;18.38;9.15;;;22.70;56.40;;;;;;5052443;28;20104;-72
2023/01/11 13:27:23;;;;;;;22.13;10.23;;;22.60;55.90;;;;;;5034692;28;20025;-72
2023/01/11 13:29:55;;;;;;;18.58;8.27;;;22.50;56.10;;;;;;5071283;28;20028;-72
2023/01/11 13:32:26;;;;;;;7.63;4.20;;;22.40;56.70;;;;;;5053135;28;20145;-72
2023/01/11 13:35:05;;;;;;;13.50;8.02;;;22.40;57.10;;;;;;5052394;28;20033;-72